Time;durP1;ratioP1;P1;durP2;ratioP2;P2;SDS_P1;SDS_P2;PMS_P1;PMS_P2;Temp;Humidity;BMP_temperature;BMP_pressure;BME280_temperature;BME280_humidity;BME280_pressure;Samples;Min_cycle;Max_cycle;Signal;HPM_P1;HPM_P2
2021/08/03 00:01:47;;;;;;;10.32;9.23;;;;;;;22.53;54.44;95416.66;4972752;28;20046;-77
2021/08/03 00:04:14;;;;;;;11.68;10.57;;;;;;;21.90;55.70;95404.75;4973795;28;20047;-78
2021/08/03 00:06:46;;;;;;;9.55;8.65;;;;;;;21.56;56.34;95420.22;4974086;28;20040;-77
2021/08/03 00:09:11;;;;;;;10.23;9.20;;;;;;;21.43;56.58;95411.53;4964861;28;20069;-79
2021/08/03 00:11:41;;;;;;;11.38;10.15;;;;;;;21.42;56.76;95411.91;4954694;28;20394;-78
2021/08/03 00:14:07;;;;;;;9.75;8.70;;;;;;;21.34;56.95;95407.53;4954610;28;20450;-78
2021/08/03 00:16:35;;;;;;;12.57;10.43;;;;;;;21.36;56.65;95405.28;4954204;28;20042;-78
2021/08/03 00:19:01;;;;;;;12.95;10.60;;;;;;;21.22;56.78;95398.47;4953176;28;20601;-78
2021/08/03 00:21:27;;;;;;;10.73;9.63;;;;;;;21.27;56.78;95397.38;4956424;28;20027;-78
2021/08/03 00:23:53;;;;;;;16.67;13.35;;;;;;;21.13;56.86;95378.25;4975820;23;20385;-67
2021/08/03 00:26:20;;;;;;;10.90;9.90;;;;;;;21.21;56.69;95388.03;4971160;28;20133;-67
2021/08/03 00:28:51;;;;;;;11.90;10.80;;;;;;;21.13;56.77;95389.84;4970977;28;20069;-68
2021/08/03 00:31:19;;;;;;;12.68;11.32;;;;;;;21.16;56.49;95380.22;4971705;28;20074;-67
2021/08/03 00:33:47;;;;;;;9.75;8.80;;;;;;;21.07;56.60;95391.31;4973412;28;20030;-67
2021/08/03 00:36:13;;;;;;;13.20;9.05;;;;;;;20.91;56.30;95377.94;4971179;28;20045;-68
2021/08/03 00:38:39;;;;;;;11.88;10.68;;;;;;;20.95;56.77;95378.00;4968344;28;20066;-67
2021/08/03 00:41:09;;;;;;;21.40;12.55;;;;;;;20.89;57.06;95385.66;4975321;28;20493;-67
2021/08/03 00:43:35;;;;;;;12.57;11.27;;;;;;;20.90;57.13;95394.53;4952073;28;20500;-68
2021/08/03 00:46:00;;;;;;;13.50;11.75;;;;;;;20.86;57.05;95391.00;4951931;28;20085;-67
2021/08/03 00:48:30;;;;;;;10.20;9.20;;;;;;;20.76;56.44;95398.59;4953951;28;20031;-68
2021/08/03 00:50:55;;;;;;;11.35;10.25;;;;;;;20.91;56.86;95401.50;4950746;28;20042;-68
2021/08/03 00:53:21;;;;;;;9.95;8.30;;;;;;;20.96;56.52;95412.00;4951631;28;20047;-68
2021/08/03 00:55:48;;;;;;;11.40;10.23;;;;;;;20.65;55.51;95411.16;4970486;28;20050;-68
2021/08/03 00:58:13;;;;;;;11.40;10.27;;;;;;;20.70;56.57;95400.03;4971103;28;20042;-67
2021/08/03 01:00:39;;;;;;;12.80;11.48;;;;;;;20.96;56.40;95403.91;4973181;28;20035;-67
2021/08/03 01:03:05;;;;;;;11.30;10.07;;;;;;;20.86;56.37;95396.41;4971039;28;20178;-67
2021/08/03 01:06:08;;;;;;;10.13;9.13;;;;;;;20.98;56.48;95410.50;4970817;28;20117;-68
2021/08/03 01:09:20;;;;;;;8.63;7.82;;;;;;;21.16;55.88;95399.94;4947174;29;20098;-67
2021/08/03 01:12:01;;;;;;;10.80;9.80;;;;;;;21.17;55.84;95404.22;4937050;28;20062;-68
2021/08/03 01:14:38;;;;;;;13.13;10.15;;;;;;;21.12;55.67;95387.50;4951537;28;20510;-67
2021/08/03 01:17:16;;;;;;;10.23;9.10;;;;;;;21.25;55.73;95411.28;4951147;28;20583;-67
2021/08/03 01:19:57;;;;;;;10.77;8.70;;;;;;;21.23;55.88;95415.50;4951505;28;20050;-67
2021/08/03 01:22:40;;;;;;;10.70;9.63;;;;;;;21.24;55.76;95408.94;4951303;28;20035;-67
2021/08/03 01:25:13;;;;;;;10.75;8.05;;;;;;;21.19;55.70;95396.53;4966407;28;20580;-67
2021/08/03 01:28:09;;;;;;;10.48;9.13;;;;;;;21.28;55.53;95407.84;4991229;28;20491;-67
2021/08/03 01:30:36;;;;;;;11.10;8.90;;;;;;;21.29;55.15;95409.41;4990216;28;20052;-67
2021/08/03 01:33:05;;;;;;;11.68;10.43;;;;;;;21.31;55.36;95402.88;4989858;28;20520;-67
2021/08/03 01:35:30;;;;;;;11.50;10.23;;;;;;;21.15;55.62;95387.56;4989886;28;20705;-67
2021/08/03 01:37:59;;;;;;;15.57;10.25;;;;;;;21.13;55.71;95399.88;4989320;28;20034;-67
2021/08/03 01:40:28;;;;;;;15.02;10.38;;;;;;;21.13;55.85;95397.97;4979340;28;20121;-67
2021/08/03 01:42:53;;;;;;;12.63;11.30;;;;;;;21.08;55.91;95379.34;4989477;28;20508;-65
2021/08/03 01:45:22;;;;;;;15.95;12.32;;;;;;;21.21;55.80;95396.94;4991462;28;20100;-67
2021/08/03 01:47:48;;;;;;;9.80;8.80;;;;;;;21.21;55.60;95391.50;4988961;28;20396;-68
2021/08/03 01:50:14;;;;;;;12.18;10.10;;;;;;;21.07;55.55;95375.09;4989551;28;20034;-67
2021/08/03 01:52:41;;;;;;;17.63;13.40;;;;;;;21.09;55.79;95393.66;4989479;28;20038;-67
2021/08/03 01:55:08;;;;;;;11.80;8.88;;;;;;;21.02;55.24;95380.81;4980742;28;20026;-67
2021/08/03 01:57:36;;;;;;;18.83;10.75;;;;;;;20.94;55.49;95371.06;4990599;28;20105;-67
2021/08/03 02:00:02;;;;;;;12.35;11.05;;;;;;;20.98;55.48;95378.03;4989427;28;20089;-67
2021/08/03 02:02:28;;;;;;;11.85;10.63;;;;;;;20.91;55.44;95374.47;4989305;28;20196;-67
2021/08/03 02:04:56;;;;;;;23.95;16.15;;;;;;;20.91;55.24;95366.34;4988179;28;20042;-66
2021/08/03 02:07:21;;;;;;;15.93;12.65;;;;;;;20.80;54.82;95370.84;4988912;28;20061;-66
2021/08/03 02:09:48;;;;;;;21.65;14.52;;;;;;;20.85;54.60;95379.41;4973327;28;20474;-66
2021/08/03 02:12:14;;;;;;;21.85;14.30;;;;;;;20.85;55.42;95365.91;4950513;28;20043;-66
2021/08/03 02:14:45;;;;;;;22.30;14.90;;;;;;;20.86;55.38;95361.25;4950642;28;20035;-66
2021/08/03 02:17:22;;;;;;;14.00;12.02;;;;;;;20.86;55.33;95353.16;4950170;28;20039;-66
2021/08/03 02:19:48;;;;;;;17.23;14.65;;;;;;;20.97;54.93;95356.78;4950677;28;20035;-67
2021/08/03 02:22:16;;;;;;;18.15;14.82;;;;;;;20.90;54.93;95362.88;4950494;28;20082;-67
2021/08/03 02:24:42;;;;;;;17.10;14.45;;;;;;;21.31;54.35;95351.47;4959347;28;20027;-66
2021/08/03 02:27:07;;;;;;;25.33;15.73;;;;;;;20.85;55.10;95348.91;4969139;28;20047;-66
2021/08/03 02:29:34;;;;;;;21.63;15.43;;;;;;;20.86;55.13;95358.56;4969620;28;20436;-65
2021/08/03 02:32:15;;;;;;;18.77;14.02;;;;;;;20.74;54.82;95363.03;4969699;28;20038;-66
2021/08/03 02:34:47;;;;;;;18.98;14.65;;;;;;;20.83;55.16;95354.69;4969673;28;20043;-66
2021/08/03 02:37:17;;;;;;;25.98;16.35;;;;;;;20.86;55.13;95343.13;4969227;28;20023;-66
2021/08/03 02:39:43;;;;;;;12.70;11.15;;;;;;;20.89;54.59;95347.03;4973240;28;20057;-66
2021/08/03 02:42:10;;;;;;;27.20;17.10;;;;;;;20.86;55.16;95343.13;4988783;28;20042;-65
2021/08/03 02:44:39;;;;;;;27.63;16.90;;;;;;;20.64;54.97;95331.22;4987334;28;20089;-66
2021/08/03 02:49:52;;;;;;;18.77;13.90;;;;;;;20.83;55.22;95333.03;4988939;28;20049;-66
2021/08/03 02:52:19;;;;;;;19.13;16.10;;;;;;;20.58;55.19;95327.28;4991971;28;20046;-65
2021/08/03 02:54:56;;;;;;;24.00;16.70;;;;;;;20.70;55.40;95328.97;4985465;28;20384;-66
2021/08/03 02:57:24;;;;;;;33.38;17.92;;;;;;;20.77;55.35;95329.84;4971910;28;20428;-65
2021/08/03 02:59:54;;;;;;;22.67;17.27;;;;;;;20.77;55.29;95323.66;4973417;28;20039;-65
2021/08/03 03:02:21;;;;;;;26.35;17.25;;;;;;;20.73;55.75;95325.56;4973151;28;20452;-65
2021/08/03 03:04:54;;;;;;;14.27;12.13;;;;;;;20.98;55.48;95336.69;4973170;28;20405;-66
2021/08/03 03:07:25;;;;;;;13.18;10.48;;;;;;;21.00;55.77;95343.31;4972616;28;20516;-65
2021/08/03 03:09:53;;;;;;;13.15;11.80;;;;;;;20.97;55.16;95338.63;4967839;28;20023;-66
2021/08/03 03:12:20;;;;;;;27.42;16.40;;;;;;;21.06;55.46;95338.38;4954206;28;20058;-66
2021/08/03 03:14:47;;;;;;;17.70;13.40;;;;;;;21.13;55.04;95333.03;4953749;28;20032;-66
2021/08/03 03:17:15;;;;;;;13.43;10.35;;;;;;;21.17;55.39;95335.81;4953406;28;20040;-67
2021/08/03 03:19:42;;;;;;;17.42;13.70;;;;;;;21.10;54.99;95328.38;4953823;28;20038;-65
2021/08/03 03:22:09;;;;;;;13.02;11.60;;;;;;;21.14;55.20;95331.13;4953791;28;20106;-65
2021/08/03 03:24:36;;;;;;;20.08;13.48;;;;;;;21.16;55.13;95335.03;4959370;28;20023;-66
2021/08/03 03:27:03;;;;;;;16.88;13.15;;;;;;;21.21;55.50;95339.34;4972570;28;20035;-71
2021/08/03 03:29:30;;;;;;;15.85;10.93;;;;;;;21.30;55.05;95337.19;4972896;28;20042;-71
2021/08/03 03:31:56;;;;;;;13.13;11.75;;;;;;;21.48;54.64;95337.38;4973007;28;20109;-70
2021/08/03 03:34:24;;;;;;;9.80;8.80;;;;;;;21.39;54.72;95337.66;4972844;28;20043;-71
2021/08/03 03:36:51;;;;;;;10.70;8.70;;;;;;;21.16;54.21;95335.03;4974134;28;20106;-71
2021/08/03 03:39:17;;;;;;;14.98;12.98;;;;;;;21.26;54.45;95336.31;4972171;28;20038;-70
2021/08/03 03:41:45;;;;;;;12.50;10.63;;;;;;;21.28;54.75;95332.09;4972675;28;20054;-69
2021/08/03 03:44:11;;;;;;;11.75;10.57;;;;;;;21.35;54.40;95330.66;4973211;28;20031;-74
2021/08/03 03:46:42;;;;;;;13.48;10.43;;;;;;;21.08;54.81;95317.13;4972518;28;20038;-68
2021/08/03 03:49:13;;;;;;;13.55;11.95;;;;;;;21.14;54.76;95329.22;4972506;28;20473;-76
2021/08/03 03:51:43;;;;;;;12.55;11.25;;;;;;;21.27;54.46;95335.16;4974358;28;20026;-67
2021/08/03 03:54:13;;;;;;;12.52;11.32;;;;;;;21.11;54.83;95332.66;4972237;28;20057;-62
2021/08/03 03:56:47;;;;;;;21.38;14.75;;;;;;;21.02;55.05;95324.00;4964057;28;20038;-65
2021/08/03 03:59:18;;;;;;;15.55;12.07;;;;;;;21.07;54.78;95331.81;4984378;28;20043;-66
2021/08/03 04:01:47;;;;;;;19.63;14.25;;;;;;;21.05;54.93;95320.59;4970984;28;20042;-66
2021/08/03 04:04:14;;;;;;;20.05;16.08;;;;;;;21.11;55.00;95338.06;4971576;28;20041;-66
2021/08/03 04:06:39;;;;;;;17.75;14.38;;;;;;;21.04;55.13;95321.75;4973808;28;20027;-68
2021/08/03 04:09:05;;;;;;;14.55;12.32;;;;;;;21.00;54.88;95310.09;4970886;28;20027;-72
2021/08/03 04:11:30;;;;;;;19.50;15.02;;;;;;;21.09;54.55;95313.31;4975304;28;20044;-69
2021/08/03 04:13:57;;;;;;;21.17;12.00;;;;;;;21.15;54.42;95313.75;4991413;28;20045;-71
2021/08/03 04:16:23;;;;;;;15.82;12.57;;;;;;;21.20;54.53;95314.22;4991209;28;20034;-69
2021/08/03 04:18:48;;;;;;;18.65;15.38;;;;;;;21.26;54.36;95318.16;4993054;28;20026;-69
2021/08/03 04:21:13;;;;;;;15.48;13.50;;;;;;;20.99;54.21;95278.78;4991127;28;20125;-68
2021/08/03 04:23:39;;;;;;;11.95;10.82;;;;;;;21.12;54.56;95304.44;4991261;28;20042;-69
2021/08/03 04:26:04;;;;;;;15.38;12.75;;;;;;;21.18;54.47;95307.59;4976828;28;20137;-68
2021/08/03 04:28:30;;;;;;;12.10;10.93;;;;;;;21.18;54.40;95311.09;4991127;28;20500;-69
2021/08/03 04:30:55;;;;;;;14.98;11.60;;;;;;;21.24;54.27;95308.84;4991084;28;20134;-69
2021/08/03 04:33:21;;;;;;;11.13;10.02;;;;;;;21.28;54.15;95309.66;4991564;28;20444;-69
2021/08/03 04:35:46;;;;;;;12.48;10.80;;;;;;;21.25;54.38;95311.19;4990570;28;20121;-70
2021/08/03 04:38:11;;;;;;;14.68;13.18;;;;;;;21.52;54.00;95306.50;4989655;28;20038;-69
2021/08/03 04:40:37;;;;;;;13.73;12.30;;;;;;;21.57;53.62;95294.56;4978089;28;20577;-69
2021/08/03 04:43:03;;;;;;;20.90;14.77;;;;;;;21.66;53.84;95297.75;4975404;28;20028;-69
2021/08/03 04:45:28;;;;;;;26.67;17.38;;;;;;;21.80;53.67;95289.78;4973216;28;20023;-70
2021/08/03 04:47:53;;;;;;;12.02;10.82;;;;;;;22.06;53.99;95299.72;4970899;28;20536;-70
2021/08/03 04:50:22;;;;;;;8.30;7.55;;;;;;;22.28;53.68;95297.97;4971219;28;20046;-70
2021/08/03 04:52:48;;;;;;;10.52;6.53;;;;;;;22.50;53.74;95300.84;4971242;28;20035;-70
2021/08/03 04:55:14;;;;;;;7.68;6.93;;;;;;;22.53;53.59;95284.63;4965757;28;20051;-70
2021/08/03 04:57:39;;;;;;;6.93;6.38;;;;;;;22.75;53.60;95288.22;4991588;28;20078;-69
2021/08/03 05:00:07;;;;;;;5.70;4.90;;;;;;;22.95;53.31;95277.91;4989311;28;20129;-69
2021/08/03 05:02:36;;;;;;;5.40;4.30;;;;;;;23.08;53.29;95290.00;4990636;28;20049;-68
2021/08/03 05:05:02;;;;;;;4.07;3.78;;;;;;;23.26;53.07;95289.28;4989171;28;20037;-67
2021/08/03 05:07:29;;;;;;;4.28;3.53;;;;;;;23.47;52.65;95278.50;4989664;28;20038;-69
2021/08/03 05:10:13;;;;;;;4.13;3.78;;;;;;;23.47;52.57;95275.78;4983626;28;20035;-68
2021/08/03 05:12:39;;;;;;;5.55;3.50;;;;;;;23.63;52.83;95275.47;4965398;28;20015;-70
2021/08/03 05:15:06;;;;;;;5.10;3.40;;;;;;;23.68;52.44;95274.31;4970136;28;20113;-70
2021/08/03 05:17:33;;;;;;;4.45;3.15;;;;;;;23.86;52.11;95270.50;4970278;28;20496;-72
2021/08/03 05:19:59;;;;;;;3.92;3.38;;;;;;;23.95;52.32;95266.59;4970737;28;20042;-72
2021/08/03 05:22:27;;;;;;;3.38;3.03;;;;;;;24.06;52.16;95278.28;4970852;28;20563;-67
2021/08/03 05:24:53;;;;;;;3.88;3.53;;;;;;;24.06;52.26;95270.13;4971967;28;20601;-76
2021/08/03 05:27:18;;;;;;;5.40;3.42;;;;;;;23.99;52.23;95242.94;4969760;28;20122;-66
2021/08/03 05:29:44;;;;;;;4.75;3.10;;;;;;;24.22;52.41;95270.50;4970607;28;20129;-68
2021/08/03 05:32:10;;;;;;;3.47;3.17;;;;;;;24.25;52.68;95269.72;4970714;28;20041;-72
2021/08/03 05:34:35;;;;;;;3.40;3.10;;;;;;;24.34;52.14;95264.69;4970552;28;20031;-68
2021/08/03 05:37:04;;;;;;;4.25;3.10;;;;;;;24.45;52.20;95283.72;4968937;28;20029;-64
2021/08/03 05:39:30;;;;;;;3.92;3.63;;;;;;;24.44;52.33;95287.63;4972592;28;20031;-68
2021/08/03 05:41:56;;;;;;;3.80;3.45;;;;;;;24.42;52.68;95270.94;4980430;28;20037;-66
2021/08/03 05:44:22;;;;;;;3.78;3.47;;;;;;;24.51;52.35;95270.50;4990192;28;20030;-73
2021/08/03 05:46:47;;;;;;;9.32;3.50;;;;;;;24.62;52.47;95276.75;4989570;28;20037;-69
2021/08/03 05:49:12;;;;;;;3.63;3.30;;;;;;;24.66;52.43;95276.72;4988145;28;20026;-70
2021/08/03 05:51:38;;;;;;;4.32;3.70;;;;;;;24.78;53.03;95281.75;4991356;28;20026;-69
2021/08/03 05:54:03;;;;;;;5.53;3.63;;;;;;;24.77;52.49;95278.25;4989612;28;20042;-69
2021/08/03 05:56:29;;;;;;;2.90;2.67;;;;;;;24.77;52.73;95263.88;4978910;28;20109;-69
2021/08/03 05:58:55;;;;;;;3.13;2.88;;;;;;;24.96;52.48;95281.69;4970050;28;20177;-70
2021/08/03 06:01:20;;;;;;;3.10;2.83;;;;;;;24.93;52.37;95283.28;4970164;28;20062;-70
2021/08/03 06:03:45;;;;;;;2.90;2.70;;;;;;;24.83;52.27;95276.69;4972206;28;20082;-68
2021/08/03 06:06:14;;;;;;;3.58;3.17;;;;;;;24.77;52.78;95277.47;4969793;28;20035;-74
2021/08/03 06:08:42;;;;;;;3.70;2.95;;;;;;;25.04;52.34;95281.31;4970118;28;20445;-79
2021/08/03 06:11:15;;;;;;;2.88;2.67;;;;;;;24.99;52.70;95275.50;4974825;28;20469;-69
2021/08/03 06:13:47;;;;;;;5.45;2.85;;;;;;;25.14;52.74;95285.19;4976871;28;20039;-69
2021/08/03 06:16:16;;;;;;;5.43;3.50;;;;;;;25.25;53.10;95285.91;4968460;28;20037;-71
2021/08/03 06:18:44;;;;;;;5.40;3.63;;;;;;;25.33;53.14;95290.16;4972229;28;20074;-71
2021/08/03 06:21:11;;;;;;;2.80;2.60;;;;;;;25.31;53.35;95287.06;4970226;28;20043;-73
2021/08/03 06:23:37;;;;;;;3.80;2.75;;;;;;;25.25;53.39;95275.03;4969170;28;20047;-73
2021/08/03 06:26:03;;;;;;;2.67;2.38;;;;;;;25.35;53.86;95281.59;4972799;28;20047;-77
2021/08/03 06:28:29;;;;;;;2.65;2.45;;;;;;;25.50;53.13;95291.25;4988821;28;20027;-74
2021/08/03 06:30:55;;;;;;;3.47;2.85;;;;;;;25.62;53.57;95287.31;4988131;28;20117;-74
2021/08/03 06:33:22;;;;;;;3.53;2.83;;;;;;;25.82;53.42;95296.56;4991327;28;20118;-75
2021/08/03 06:35:50;;;;;;;3.25;2.70;;;;;;;25.83;53.43;95297.34;4988822;28;20039;-75
2021/08/03 06:38:16;;;;;;;2.70;2.50;;;;;;;25.77;53.30;95293.47;4989236;28;20035;-74
2021/08/03 06:41:04;;;;;;;3.08;2.45;;;;;;;25.88;53.37;95294.97;4985160;28;20430;-74
2021/08/03 06:43:31;;;;;;;3.47;2.30;;;;;;;25.88;52.30;95288.75;4989254;28;20034;-75
2021/08/03 06:46:00;;;;;;;2.83;2.42;;;;;;;25.84;52.93;95280.59;4988666;28;20029;-72
2021/08/03 06:48:32;;;;;;;2.75;2.55;;;;;;;25.90;51.97;95280.97;4990644;28;20077;-73
2021/08/03 06:51:24;;;;;;;4.13;2.35;;;;;;;26.02;52.73;95283.19;4987466;28;20136;-68
2021/08/03 06:53:50;;;;;;;3.00;2.45;;;;;;;26.11;52.29;95272.63;4987304;28;20484;-69
2021/08/03 06:56:21;;;;;;;4.38;2.20;;;;;;;26.06;51.71;95280.47;4984750;28;20093;-66
2021/08/03 06:59:15;;;;;;;2.63;2.43;;;;;;;25.81;48.56;95278.66;4988484;28;20121;-70
2021/08/03 07:01:52;;;;;;;2.38;1.85;;;;;;;25.45;49.66;95275.34;4988926;28;20070;-70
2021/08/03 07:04:40;;;;;;;4.90;2.47;;;;;;;25.31;48.11;95281.63;4988848;28;20468;-70
2021/08/03 07:07:07;;;;;;;4.13;2.40;;;;;;;25.57;52.06;95269.44;4985073;28;20038;-71
2021/08/03 07:09:33;;;;;;;2.30;2.10;;;;;;;25.74;51.73;95269.72;4990649;28;20030;-70
2021/08/03 07:11:58;;;;;;;2.92;2.00;;;;;;;25.77;48.39;95277.91;4986641;28;20034;-70
2021/08/03 07:14:24;;;;;;;3.03;2.08;;;;;;;26.01;51.43;95283.63;4988346;28;20089;-70
2021/08/03 07:16:53;;;;;;;1.80;1.70;;;;;;;26.22;48.99;95271.78;4987067;28;20084;-70
2021/08/03 07:19:20;;;;;;;2.70;2.05;;;;;;;26.75;50.68;95276.78;4987318;28;20038;-70
2021/08/03 07:21:46;;;;;;;1.90;1.80;;;;;;;27.02;49.38;95270.66;4990585;28;20034;-70
2021/08/03 07:24:12;;;;;;;2.22;1.80;;;;;;;26.67;45.84;95280.78;4988566;28;20593;-70
2021/08/03 07:26:39;;;;;;;4.00;2.00;;;;;;;27.33;49.49;95285.13;4975159;28;20042;-70
2021/08/03 07:29:04;;;;;;;1.65;1.55;;;;;;;27.83;49.46;95271.63;4969001;28;20141;-69
2021/08/03 07:31:31;;;;;;;2.15;1.95;;;;;;;28.16;49.20;95272.72;4969172;28;20499;-70
2021/08/03 07:33:57;;;;;;;2.35;2.13;;;;;;;28.39;48.13;95282.91;4968956;28;20057;-70
2021/08/03 07:36:22;;;;;;;1.50;1.40;;;;;;;28.54;48.13;95279.94;4970419;28;20165;-70
2021/08/03 07:38:53;;;;;;;2.10;1.80;;;;;;;28.69;47.48;95279.28;4971037;28;20043;-70
2021/08/03 07:41:19;;;;;;;1.90;1.80;;;;;;;28.67;45.76;95267.22;4966065;28;20051;-70
2021/08/03 07:43:44;;;;;;;2.40;2.20;;;;;;;28.72;45.77;95273.00;4991635;28;20489;-70
2021/08/03 07:46:10;;;;;;;3.83;2.03;;;;;;;28.82;46.22;95271.25;4991096;28;20019;-70
2021/08/03 07:48:35;;;;;;;1.83;1.55;;;;;;;28.67;44.43;95275.44;4993615;28;20034;-69
2021/08/03 07:51:01;;;;;;;2.17;1.20;;;;;;;28.78;46.61;95264.28;4991712;28;20396;-69
2021/08/03 07:53:26;;;;;;;1.70;1.60;;;;;;;28.78;42.49;95267.03;4991590;28;20212;-70
2021/08/03 07:55:51;;;;;;;2.25;1.63;;;;;;;28.72;44.53;95262.03;4981295;28;20051;-70
2021/08/03 07:58:17;;;;;;;1.48;1.38;;;;;;;28.73;42.78;95260.84;4986784;28;20176;-71
2021/08/03 08:00:42;;;;;;;2.33;1.80;;;;;;;28.61;41.93;95266.13;4993240;28;20110;-70
2021/08/03 08:03:07;;;;;;;1.63;1.10;;;;;;;28.76;44.48;95270.16;4991252;28;20054;-70
2021/08/03 08:05:33;;;;;;;1.35;1.25;;;;;;;28.87;44.89;95268.03;4989924;28;20058;-69
2021/08/03 08:07:58;;;;;;;3.17;1.38;;;;;;;28.85;43.09;95266.88;4990859;28;20134;-70
2021/08/03 08:10:24;;;;;;;1.33;1.13;;;;;;;28.78;40.59;95267.81;4989830;28;20030;-70
2021/08/03 08:12:50;;;;;;;2.47;1.70;;;;;;;28.42;40.20;95276.63;4981114;28;20062;-70
2021/08/03 08:15:15;;;;;;;1.38;1.27;;;;;;;28.67;44.08;95276.19;4991276;28;20673;-70
2021/08/03 08:17:41;;;;;;;1.50;1.40;;;;;;;28.65;40.30;95266.84;4990595;28;20077;-69
2021/08/03 08:20:12;;;;;;;1.85;1.08;;;;;;;27.69;36.77;95280.00;4990004;28;20056;-69
2021/08/03 08:22:38;;;;;;;2.05;1.10;;;;;;;28.01;41.76;95273.34;4991121;28;20035;-70
2021/08/03 08:25:04;;;;;;;1.60;1.27;;;;;;;28.37;45.21;95262.66;4991154;28;20034;-70
2021/08/03 08:27:30;;;;;;;1.65;1.30;;;;;;;28.51;44.75;95246.00;4979930;28;20033;-70
2021/08/03 08:29:55;;;;;;;1.88;1.70;;;;;;;28.88;46.26;95264.09;4990803;28;20050;-71
2021/08/03 08:32:20;;;;;;;1.40;1.30;;;;;;;28.10;35.76;95246.22;4990434;28;20031;-70
2021/08/03 08:34:46;;;;;;;1.48;1.20;;;;;;;27.38;35.98;95257.38;4990942;28;20046;-71
2021/08/03 08:37:11;;;;;;;1.75;1.20;;;;;;;27.71;40.41;95255.81;4990384;28;20019;-71
2021/08/03 08:39:36;;;;;;;2.05;1.27;;;;;;;26.88;37.12;95260.69;4992701;28;20019;-71
2021/08/03 08:42:02;;;;;;;1.90;1.33;;;;;;;27.85;35.09;95255.59;4979557;28;20074;-71
2021/08/03 08:44:27;;;;;;;1.48;1.20;;;;;;;28.76;42.14;95257.25;4990460;28;20555;-71
2021/08/03 08:46:56;;;;;;;1.38;1.13;;;;;;;29.08;40.09;95244.19;4988568;28;20483;-71
2021/08/03 08:49:23;;;;;;;1.35;1.25;;;;;;;29.48;39.06;95262.16;4990375;28;20038;-71
2021/08/03 08:51:48;;;;;;;1.10;1.00;;;;;;;29.21;37.80;95258.78;4991230;28;20066;-71
2021/08/03 08:54:14;;;;;;;1.40;1.30;;;;;;;30.30;39.42;95256.81;4990443;28;20043;-71
2021/08/03 08:56:39;;;;;;;1.20;1.10;;;;;;;30.67;32.45;95252.00;4979733;28;20406;-71
2021/08/03 08:59:04;;;;;;;5.32;1.60;;;;;;;31.09;38.13;95265.84;4990387;28;20039;-72
2021/08/03 09:01:30;;;;;;;1.88;1.10;;;;;;;31.57;38.13;95254.66;4990380;28;20033;-71
2021/08/03 09:03:55;;;;;;;1.17;1.15;;;;;;;31.81;31.68;95259.88;4990126;28;20069;-71
2021/08/03 09:06:21;;;;;;;2.10;1.50;;;;;;;31.80;33.22;95244.56;4991548;28;20496;-71
2021/08/03 09:08:49;;;;;;;2.88;1.20;;;;;;;31.90;34.92;95232.50;4990218;28;20026;-72
2021/08/03 09:11:17;;;;;;;3.13;0.95;;;;;;;32.44;34.39;95248.06;4980931;28;20038;-71
2021/08/03 09:14:00;;;;;;;1.27;1.17;;;;;;;32.40;32.71;95239.19;4989955;28;20041;-71
2021/08/03 09:16:27;;;;;;;1.48;1.25;;;;;;;33.01;35.18;95242.63;4989477;28;20407;-72
2021/08/03 09:18:54;;;;;;;2.40;0.98;;;;;;;33.32;33.97;95237.97;4991998;28;20022;-73
2021/08/03 09:21:26;;;;;;;1.73;1.48;;;;;;;33.51;31.21;95240.84;4990500;28;20058;-72
2021/08/03 09:23:59;;;;;;;1.45;1.33;;;;;;;33.80;32.04;95246.81;4989717;28;20397;-72
2021/08/03 09:26:41;;;;;;;1.13;0.82;;;;;;;33.94;30.67;95237.25;4979875;28;20118;-71
2021/08/03 09:29:09;;;;;;;2.08;0.93;;;;;;;34.12;29.61;95231.78;4981744;28;20062;-72
2021/08/03 09:31:36;;;;;;;1.38;1.27;;;;;;;34.36;29.85;95231.25;4970454;28;20094;-72
2021/08/03 09:34:15;;;;;;;2.83;1.30;;;;;;;34.58;27.28;95234.69;4970171;28;20122;-73
2021/08/03 09:36:46;;;;;;;1.60;1.38;;;;;;;34.42;24.90;95232.19;4971446;28;20034;-72
2021/08/03 09:39:45;;;;;;;0.90;0.90;;;;;;;34.90;25.29;95233.31;4970483;28;20097;-72
2021/08/03 09:42:15;;;;;;;1.10;1.00;;;;;;;35.36;27.75;95233.28;4975095;28;20074;-73
2021/08/03 09:44:53;;;;;;;1.10;1.00;;;;;;;35.67;25.80;95233.09;4989258;28;20038;-71
2021/08/03 09:47:19;;;;;;;1.13;1.00;;;;;;;35.92;23.90;95243.00;4987672;28;20400;-72
2021/08/03 09:49:50;;;;;;;1.98;0.88;;;;;;;36.26;24.86;95235.47;4989439;28;20042;-72
2021/08/03 09:52:18;;;;;;;1.80;1.70;;;;;;;36.45;24.28;95244.50;4989348;28;20077;-73
2021/08/03 09:54:43;;;;;;;2.10;1.25;;;;;;;36.18;21.36;95235.06;4991177;28;20547;-73
2021/08/03 09:57:25;;;;;;;0.90;0.90;;;;;;;35.87;21.21;95229.03;4983104;28;20132;-73
2021/08/03 09:59:55;;;;;;;2.28;1.25;;;;;;;36.09;21.10;95226.81;4988913;28;20038;-72
2021/08/03 10:02:28;;;;;;;1.20;1.13;;;;;;;35.85;22.19;95228.72;4987311;28;20045;-73
2021/08/03 10:04:56;;;;;;;1.83;1.00;;;;;;;35.91;21.01;95230.38;4989001;28;20046;-73
2021/08/03 10:07:22;;;;;;;1.02;1.02;;;;;;;35.78;21.62;95229.06;4988732;28;20695;-72
2021/08/03 10:09:49;;;;;;;1.70;1.27;;;;;;;34.81;21.32;95211.22;4990679;28;20038;-72
2021/08/03 10:12:16;;;;;;;1.08;1.08;;;;;;;35.20;22.04;95222.56;4983860;28;20444;-73
2021/08/03 10:14:42;;;;;;;1.48;1.15;;;;;;;35.45;22.00;95210.41;4988841;28;20038;-72
2021/08/03 10:17:12;;;;;;;1.10;1.00;;;;;;;35.99;22.14;95219.78;4987222;28;20124;-72
2021/08/03 10:19:38;;;;;;;1.55;1.15;;;;;;;34.20;22.33;95214.97;4988581;28;20054;-70
2021/08/03 10:22:21;;;;;;;1.35;1.30;;;;;;;34.30;21.93;95206.22;4989098;28;20030;-72
2021/08/03 10:24:53;;;;;;;1.15;1.05;;;;;;;34.80;22.03;95208.91;4989668;28;20366;-71
2021/08/03 10:27:18;;;;;;;1.42;1.05;;;;;;;35.18;22.14;95213.97;4980424;28;20042;-71
2021/08/03 10:29:52;;;;;;;1.40;1.00;;;;;;;32.45;23.88;95208.34;4969737;28;20045;-70
2021/08/03 10:32:39;;;;;;;1.48;1.20;;;;;;;33.97;23.08;95214.25;4968387;28;20039;-70
2021/08/03 10:35:07;;;;;;;1.58;1.05;;;;;;;34.66;22.40;95213.06;4968498;28;20075;-70
2021/08/03 10:37:58;;;;;;;2.22;2.03;;;;;;;35.21;22.40;95215.03;4969035;28;20043;-70
2021/08/03 10:40:48;;;;;;;1.92;1.20;;;;;;;34.73;22.29;95214.75;4969652;28;20042;-70
2021/08/03 10:43:15;;;;;;;1.35;1.30;;;;;;;31.98;24.13;95222.03;4984619;28;26064;-71
2021/08/03 10:45:41;;;;;;;1.33;1.23;;;;;;;31.82;25.40;95198.16;4988907;28;20442;-70
2021/08/03 10:48:06;;;;;;;1.20;1.10;;;;;;;31.08;25.87;95218.38;4988779;28;20041;-71
2021/08/03 10:50:32;;;;;;;1.77;1.40;;;;;;;29.49;29.18;95208.13;4988987;28;20467;-71
2021/08/03 10:53:02;;;;;;;1.67;1.25;;;;;;;30.61;26.95;95210.59;4988888;28;20504;-71
2021/08/03 10:55:32;;;;;;;2.83;1.65;;;;;;;32.59;24.85;95202.31;4988874;28;20034;-71
2021/08/03 10:58:19;;;;;;;1.50;1.40;;;;;;;34.24;24.01;95194.22;4986879;28;20045;-72
2021/08/03 11:00:56;;;;;;;1.48;1.20;;;;;;;35.01;22.85;95191.44;4990835;28;20091;-70
2021/08/03 11:03:30;;;;;;;1.30;1.20;;;;;;;34.60;22.32;95195.53;4989413;28;20038;-71
2021/08/03 11:06:19;;;;;;;1.95;1.30;;;;;;;34.94;22.25;95194.47;4986887;28;20035;-71
2021/08/03 11:08:48;;;;;;;2.10;1.30;;;;;;;34.95;22.83;95176.69;4981401;28;20046;-70
2021/08/03 11:11:27;;;;;;;3.13;1.48;;;;;;;33.62;24.47;95189.56;4987385;28;20046;-71
2021/08/03 11:13:58;;;;;;;1.38;1.27;;;;;;;30.69;28.30;95191.94;4972573;28;20043;-72
2021/08/03 11:16:23;;;;;;;3.08;1.80;;;;;;;33.25;25.17;95185.06;4972026;28;20046;-72
2021/08/03 11:18:54;;;;;;;3.30;1.40;;;;;;;33.26;24.93;95186.59;4973219;28;20049;-72
2021/08/03 11:21:24;;;;;;;2.20;1.60;;;;;;;33.43;24.62;95184.44;4973205;28;20093;-71
2021/08/03 11:23:59;;;;;;;1.92;1.30;;;;;;;32.16;25.02;95177.44;4972630;28;20050;-72
2021/08/03 11:26:31;;;;;;;2.92;1.65;;;;;;;33.26;23.84;95164.56;4970222;28;20042;-71
2021/08/03 11:28:57;;;;;;;1.80;1.70;;;;;;;33.58;23.62;95172.41;4982030;28;20101;-71
2021/08/03 11:31:39;;;;;;;2.00;1.60;;;;;;;32.98;24.55;95166.38;4991907;28;20050;-72
2021/08/03 11:34:05;;;;;;;3.45;1.70;;;;;;;33.28;24.47;95159.38;4990803;28;20116;-72
2021/08/03 11:36:31;;;;;;;1.63;1.52;;;;;;;34.21;23.34;95156.50;4993557;28;20094;-71
2021/08/03 11:38:57;;;;;;;2.88;1.58;;;;;;;33.99;23.60;95140.06;4992074;28;20050;-72